Aracena, Spain
Current Conditions -  °F | °C
As of 1:00 AM on Saturday 25 Oct 2014 (Local Time) from LEZL Reporting Station
Clear Clear  
Wind Chill: 64°   Ceiling: Unl
Heat Index: 64°   Visibility: 6mi
Dew Point: 52°   Wind: 2mph
Humidity: 64%   Direction: 60°ENE
Pressure: 29.97"   Gusts: NA
Location:  37.89°N, 6.56°W
Report Text: LEZL 242300Z 06002KT CAVOK 18/11 Q1015 NOSIG
Loading
Personal Weather Stations






























Interactive Weather Map
Tropical Storm Tracking
New forecast layout! Learn more

10-Day Weather Forecast

Advertisements
Track Severe Weather on mobile